Time;durP1;ratioP1;P1;durP2;ratioP2;P2;SDS_P1;SDS_P2;PMS_P1;PMS_P2;Temp;Humidity;BMP_temperature;BMP_pressure;BME280_temperature;BME280_humidity;BME280_pressure;Samples;Min_cycle;Max_cycle;Signal;HPM_P1;HPM_P2
2022/05/22 00:01:47;;;;;;;17.50;5.55;;;;;;;12.68;100.00;98190.78;4985452;28;20137;-57
2022/05/22 00:04:13;;;;;;;22.05;5.80;;;;;;;12.78;100.00;98185.97;4986113;28;20121;-57
2022/05/22 00:06:38;;;;;;;17.77;6.03;;;;;;;12.79;100.00;98189.44;4985139;28;20046;-55
2022/05/22 00:09:04;;;;;;;18.77;5.65;;;;;;;12.66;100.00;98178.69;4985613;28;20026;-55
2022/05/22 00:11:29;;;;;;;16.33;5.50;;;;;;;12.49;100.00;98177.69;4985321;28;20046;-55
2022/05/22 00:13:55;;;;;;;16.00;5.63;;;;;;;12.26;100.00;98180.50;4985652;28;20452;-56
2022/05/22 00:19:06;;;;;;;19.38;5.72;;;;;;;12.66;100.00;98178.69;4985210;28;20077;-55
2022/05/22 00:21:31;;;;;;;15.10;5.38;;;;;;;12.59;100.00;98177.25;4984780;28;20129;-57
2022/05/22 00:23:57;;;;;;;15.35;4.78;;;;;;;12.37;100.00;98175.66;4985528;28;20132;-57
2022/05/22 00:26:22;;;;;;;16.20;5.13;;;;;;;12.30;100.00;98171.63;4985010;28;20129;-56
2022/05/22 00:28:48;;;;;;;15.07;4.88;;;;;;;12.14;100.00;98174.91;4985514;28;20030;-55
2022/05/22 00:31:13;;;;;;;21.58;5.72;;;;;;;12.38;100.00;98169.50;4984889;28;20542;-57
2022/05/22 00:33:39;;;;;;;14.75;4.90;;;;;;;12.27;100.00;98171.75;4984839;28;20018;-55
2022/05/22 00:36:05;;;;;;;17.00;5.10;;;;;;;12.04;100.00;98178.88;4983484;28;20038;-57
2022/05/22 00:38:30;;;;;;;21.13;5.50;;;;;;;12.07;100.00;98183.94;4983295;28;20026;-56
2022/05/22 00:40:55;;;;;;;14.07;4.75;;;;;;;12.11;100.00;98182.91;4984561;28;20099;-55
2022/05/22 00:43:39;;;;;;;17.92;5.20;;;;;;;11.74;100.00;98179.25;4984805;28;20536;-57
2022/05/22 00:46:06;;;;;;;21.50;5.55;;;;;;;11.72;100.00;98175.81;4984379;28;20059;-56
2022/05/22 00:48:33;;;;;;;14.50;4.85;;;;;;;11.85;100.00;98180.53;4984757;28;20037;-58
2022/05/22 00:51:04;;;;;;;17.05;5.50;;;;;;;11.94;100.00;98180.16;4984021;28;20141;-56
2022/05/22 00:53:33;;;;;;;16.10;5.35;;;;;;;11.83;100.00;98183.22;4985539;28;20030;-55
2022/05/22 00:56:05;;;;;;;17.67;5.50;;;;;;;12.19;100.00;98189.56;4984483;28;20495;-55
2022/05/22 00:58:31;;;;;;;19.80;6.28;;;;;;;12.22;100.00;98174.59;4984613;28;20046;-55
2022/05/22 01:00:57;;;;;;;16.33;5.60;;;;;;;12.17;100.00;98181.78;4983786;28;20475;-55
2022/05/22 01:03:28;;;;;;;18.30;5.35;;;;;;;12.17;100.00;98188.75;4985133;28;20532;-57
2022/05/22 01:05:55;;;;;;;15.80;5.47;;;;;;;11.83;100.00;98182.38;4984358;28;20038;-55
2022/05/22 01:08:20;;;;;;;20.05;5.43;;;;;;;11.91;100.00;98185.53;4984401;28;20118;-55
2022/05/22 01:10:50;;;;;;;16.52;5.50;;;;;;;11.87;100.00;98189.16;4983183;28;20062;-54
2022/05/22 01:13:19;;;;;;;16.63;5.53;;;;;;;12.14;100.00;98190.59;4984395;28;20081;-55
2022/05/22 01:15:45;;;;;;;18.50;6.05;;;;;;;11.88;100.00;98190.88;4983178;28;20084;-56
2022/05/22 01:18:10;;;;;;;14.70;5.50;;;;;;;11.72;100.00;98191.50;4984533;28;20692;-54
2022/05/22 01:20:37;;;;;;;17.30;5.38;;;;;;;11.93;100.00;98189.78;4983311;28;20437;-55
2022/05/22 01:23:02;;;;;;;18.27;5.10;;;;;;;11.79;100.00;98191.25;4984581;28;20048;-56
2022/05/22 01:25:28;;;;;;;15.23;4.72;;;;;;;12.34;100.00;98181.03;4984306;28;20970;-55
2022/05/22 01:27:54;;;;;;;17.45;5.45;;;;;;;11.66;100.00;98181.31;4984025;28;20072;-55
2022/05/22 01:30:28;;;;;;;22.85;5.68;;;;;;;11.49;100.00;98183.81;4983872;28;20065;-56
2022/05/22 01:32:54;;;;;;;15.75;5.40;;;;;;;11.28;100.00;98190.75;4984305;28;20111;-54
2022/05/22 01:35:23;;;;;;;15.93;5.45;;;;;;;11.23;100.00;98187.47;4983428;28;20057;-56
2022/05/22 01:37:48;;;;;;;20.13;5.90;;;;;;;11.14;100.00;98188.72;4983541;28;20071;-55
2022/05/22 01:40:15;;;;;;;21.55;5.28;;;;;;;11.69;100.00;98175.09;4983475;28;20403;-55
2022/05/22 01:42:42;;;;;;;15.85;5.40;;;;;;;11.45;100.00;98180.47;4984014;28;20018;-54
2022/05/22 01:45:09;;;;;;;14.85;5.45;;;;;;;11.43;100.00;98178.81;4983379;28;20030;-57
2022/05/22 01:47:36;;;;;;;13.95;5.63;;;;;;;11.22;100.00;98176.19;4983900;28;20408;-56
2022/05/22 01:50:03;;;;;;;16.73;5.68;;;;;;;11.22;100.00;98178.81;4983895;28;20021;-56
2022/05/22 01:52:28;;;;;;;20.05;5.72;;;;;;;11.62;100.00;98179.75;4983622;28;20046;-56
2022/05/22 01:54:53;;;;;;;15.65;5.00;;;;;;;11.76;100.00;98182.66;4985946;28;20034;-55
2022/05/22 01:57:19;;;;;;;20.58;5.47;;;;;;;11.65;100.00;98182.25;4983237;28;20993;-57
2022/05/22 01:59:44;;;;;;;14.55;5.38;;;;;;;11.31;100.00;98186.25;4982764;28;20037;-56
2022/05/22 02:02:10;;;;;;;16.20;5.55;;;;;;;11.54;100.00;98187.94;4983161;28;20085;-57
2022/05/22 02:04:35;;;;;;;19.38;5.70;;;;;;;11.56;100.00;98186.09;4983619;28;20451;-56
2022/05/22 02:09:44;;;;;;;16.60;5.00;;;;;;;12.03;100.00;98179.75;4983200;28;20088;-55
2022/05/22 02:12:10;;;;;;;15.30;5.53;;;;;;;11.51;100.00;98188.06;4982526;28;20046;-55
2022/05/22 02:14:35;;;;;;;17.73;5.60;;;;;;;11.47;100.00;98180.38;4982420;28;20045;-57
2022/05/22 02:17:01;;;;;;;18.17;5.63;;;;;;;11.28;100.00;98173.31;4982470;28;20108;-56
2022/05/22 02:19:26;;;;;;;16.35;5.35;;;;;;;11.43;100.00;98171.00;4983096;28;20118;-55
2022/05/22 02:21:51;;;;;;;17.08;5.45;;;;;;;11.45;100.00;98167.41;4981805;28;20045;-57
2022/05/22 02:24:17;;;;;;;26.85;6.47;;;;;;;12.00;100.00;98164.19;4982876;28;20073;-55
2022/05/22 02:26:42;;;;;;;18.83;6.07;;;;;;;11.37;100.00;98164.25;4982972;28;20057;-55
2022/05/22 02:29:08;;;;;;;18.23;5.70;;;;;;;11.43;100.00;98169.22;4982977;28;20137;-57
2022/05/22 02:31:33;;;;;;;18.70;4.85;;;;;;;11.76;100.00;98161.75;4981022;28;20124;-57
2022/05/22 02:33:59;;;;;;;17.02;5.20;;;;;;;12.00;100.00;98164.19;4983055;28;20113;-56
2022/05/22 02:36:24;;;;;;;17.30;5.25;;;;;;;12.13;100.00;98160.16;4982197;28;20039;-55
2022/05/22 02:38:50;;;;;;;13.00;4.80;;;;;;;11.72;100.00;98160.16;4983108;28;20022;-55
2022/05/22 02:41:16;;;;;;;20.13;5.80;;;;;;;11.48;100.00;98159.44;4982427;28;20401;-56
2022/05/22 02:43:42;;;;;;;18.77;5.60;;;;;;;11.45;100.00;98156.97;4983117;28;20041;-56
2022/05/22 02:46:09;;;;;;;17.38;5.95;;;;;;;11.74;100.00;98154.88;4982625;28;20034;-56
2022/05/22 02:48:35;;;;;;;19.70;5.90;;;;;;;11.63;100.00;98150.09;4982650;28;20512;-60
2022/05/22 02:51:00;;;;;;;19.35;5.53;;;;;;;11.55;100.00;98153.03;4982345;28;20053;-57
2022/05/22 02:53:26;;;;;;;19.38;5.90;;;;;;;11.63;100.00;98150.09;4982580;28;20032;-55
2022/05/22 02:55:52;;;;;;;16.15;5.05;;;;;;;11.72;100.00;98154.09;4982332;28;20034;-56
2022/05/22 02:58:17;;;;;;;16.02;5.32;;;;;;;11.64;100.00;98143.97;4982828;28;20033;-56
2022/05/22 03:00:43;;;;;;;17.60;5.47;;;;;;;11.62;100.00;98145.81;4981808;28;20049;-55
2022/05/22 03:03:08;;;;;;;16.80;5.47;;;;;;;11.87;100.00;98139.50;4981621;28;20030;-56
2022/05/22 03:08:18;;;;;;;15.00;5.30;;;;;;;12.10;100.00;98141.97;4983020;28;20563;-56
2022/05/22 03:10:44;;;;;;;18.13;5.88;;;;;;;11.98;100.00;98145.13;4980251;28;20039;-55
2022/05/22 03:13:11;;;;;;;11.25;4.88;;;;;;;11.98;100.00;98146.91;4982251;28;20026;-56
2022/05/22 03:15:37;;;;;;;14.60;5.03;;;;;;;12.23;100.00;98134.44;4981853;28;20117;-56
2022/05/22 03:18:02;;;;;;;12.63;5.05;;;;;;;12.14;100.00;98130.44;4982478;28;20971;-55
2022/05/22 03:20:30;;;;;;;12.68;5.13;;;;;;;12.18;100.00;98140.78;4981722;28;20085;-56
2022/05/22 03:22:56;;;;;;;15.30;5.40;;;;;;;12.00;100.00;98132.00;4981208;28;20026;-56
2022/05/22 03:25:22;;;;;;;14.77;5.20;;;;;;;12.15;100.00;98132.16;4981976;28;20069;-55
2022/05/22 03:27:47;;;;;;;18.13;5.45;;;;;;;12.05;100.00;98130.88;4982174;28;20062;-56
2022/05/22 03:30:13;;;;;;;16.70;5.20;;;;;;;12.23;100.00;98131.81;4981676;28;20034;-55
2022/05/22 03:32:38;;;;;;;13.25;4.55;;;;;;;12.63;100.00;98121.28;4982451;28;20018;-56
2022/05/22 03:35:04;;;;;;;12.68;4.53;;;;;;;12.47;100.00;98121.97;4985960;28;20034;-55
2022/05/22 03:37:30;;;;;;;13.95;4.70;;;;;;;12.72;100.00;98110.38;4986637;28;20026;-55
2022/05/22 03:39:56;;;;;;;15.23;5.07;;;;;;;12.91;100.00;98107.69;4985909;28;20041;-55
2022/05/22 03:42:21;;;;;;;18.48;4.93;;;;;;;12.54;100.00;98112.09;4986080;28;20038;-55
2022/05/22 03:44:47;;;;;;;17.77;5.32;;;;;;;12.23;100.00;98107.44;4986595;28;20022;-55
2022/05/22 03:47:12;;;;;;;14.13;4.65;;;;;;;12.40;100.00;98115.34;4985639;28;20038;-55
2022/05/22 03:49:37;;;;;;;13.57;5.10;;;;;;;12.49;100.00;98104.44;4986038;28;20049;-56
2022/05/22 03:52:03;;;;;;;15.18;5.18;;;;;;;12.21;100.00;98104.03;4985529;28;20049;-56
2022/05/22 03:54:28;;;;;;;15.02;5.00;;;;;;;12.12;100.00;98106.16;4986151;28;20033;-56
2022/05/22 03:56:55;;;;;;;12.45;4.93;;;;;;;12.21;100.00;98104.03;4985549;28;20183;-55
2022/05/22 03:59:20;;;;;;;17.08;5.18;;;;;;;12.12;100.00;98106.16;4985788;28;20029;-55
2022/05/22 04:01:46;;;;;;;14.45;5.00;;;;;;;12.22;100.00;98100.50;4984763;28;20050;-56
2022/05/22 04:04:11;;;;;;;17.90;5.22;;;;;;;12.00;100.00;98098.84;4985909;28;20032;-55
2022/05/22 04:06:36;;;;;;;19.23;5.57;;;;;;;11.92;100.00;98104.44;4985289;28;20070;-54
2022/05/22 04:09:02;;;;;;;21.83;5.28;;;;;;;12.12;100.00;98105.31;4986274;28;20503;-56
2022/05/22 04:11:28;;;;;;;15.57;5.07;;;;;;;12.29;100.00;98099.28;4985324;28;20491;-56
2022/05/22 04:13:53;;;;;;;16.83;4.85;;;;;;;12.66;100.00;98089.72;4985444;28;20061;-56
2022/05/22 04:16:18;;;;;;;20.33;5.60;;;;;;;12.72;100.00;98090.28;4985343;28;20097;-57
2022/05/22 04:18:44;;;;;;;14.10;4.75;;;;;;;12.90;100.00;98088.53;4985402;28;20048;-56
2022/05/22 04:21:09;;;;;;;12.20;4.35;;;;;;;12.88;100.00;98079.91;4985097;28;20299;-55
2022/05/22 04:26:18;;;;;;;16.60;5.50;;;;;;;12.84;100.00;98082.75;4985141;28;20093;-57
2022/05/22 04:28:44;;;;;;;12.40;4.82;;;;;;;12.75;100.00;98084.03;4987337;28;20026;-56
2022/05/22 04:31:09;;;;;;;14.85;4.68;;;;;;;13.59;100.00;98075.53;4984775;28;20737;-56
2022/05/22 04:33:35;;;;;;;13.77;4.50;;;;;;;13.58;100.00;98081.69;4985306;28;20026;-56
2022/05/22 04:36:01;;;;;;;19.00;5.07;;;;;;;13.39;100.00;98076.56;4985242;28;20503;-57
2022/05/22 04:38:27;;;;;;;12.00;4.65;;;;;;;13.13;100.00;98070.81;4985221;28;20026;-56
2022/05/22 04:40:57;;;;;;;16.23;5.00;;;;;;;13.22;100.00;98078.22;4984772;28;20042;-57
2022/05/22 04:43:25;;;;;;;17.05;4.70;;;;;;;13.52;100.00;98074.16;4984745;28;20559;-55
2022/05/22 04:45:50;;;;;;;16.20;5.18;;;;;;;13.75;100.00;98072.94;4983622;28;21001;-56
2022/05/22 04:48:17;;;;;;;14.23;4.90;;;;;;;13.82;100.00;98079.53;4984627;28;20032;-58
2022/05/22 04:50:47;;;;;;;16.58;5.40;;;;;;;13.38;100.00;98087.94;4984181;28;20034;-56
2022/05/22 04:53:14;;;;;;;13.60;4.85;;;;;;;13.61;100.00;98095.47;4985255;28;20037;-55
2022/05/22 04:55:39;;;;;;;15.80;5.10;;;;;;;13.80;100.00;98090.13;4984273;28;20038;-57
2022/05/22 04:58:05;;;;;;;16.38;4.80;;;;;;;14.13;100.00;98086.63;4985006;28;20026;-55
2022/05/22 05:00:30;;;;;;;17.17;5.30;;;;;;;14.22;100.00;98095.78;4983773;28;20129;-55
2022/05/22 05:02:55;;;;;;;12.93;4.88;;;;;;;14.46;100.00;98078.69;4985018;28;20504;-56
2022/05/22 05:05:21;;;;;;;14.55;4.53;;;;;;;15.50;100.00;98071.00;4984271;28;20030;-55
2022/05/22 05:07:46;;;;;;;13.65;4.38;;;;;;;15.77;100.00;98072.94;4984138;28;20038;-57
2022/05/22 05:10:12;;;;;;;12.52;4.32;;;;;;;14.68;100.00;98092.41;4984408;28;20026;-57
2022/05/22 05:12:39;;;;;;;12.52;4.45;;;;;;;14.88;100.00;98091.28;4984323;28;20051;-57
2022/05/22 05:15:07;;;;;;;15.68;4.68;;;;;;;15.20;100.00;98074.53;4983914;28;20026;-55
2022/05/22 05:17:32;;;;;;;12.30;4.20;;;;;;;15.52;100.00;98079.66;4984171;28;20172;-56
2022/05/22 05:19:58;;;;;;;14.93;4.32;;;;;;;15.69;100.00;98064.63;4984151;28;20109;-55
2022/05/22 05:22:24;;;;;;;12.10;4.65;;;;;;;15.03;100.00;98074.66;4983474;28;20050;-56
2022/05/22 05:24:49;;;;;;;14.48;4.80;;;;;;;14.80;100.00;98084.69;4984445;28;20476;-56
2022/05/22 05:27:14;;;;;;;12.60;4.47;;;;;;;15.08;100.00;98075.22;4987442;28;20582;-55
2022/05/22 05:29:40;;;;;;;14.13;4.70;;;;;;;15.16;100.00;98073.03;4984098;28;20069;-55
2022/05/22 05:32:05;;;;;;;12.75;4.13;;;;;;;16.46;100.00;98063.34;4984110;28;20100;-55
2022/05/22 05:34:31;;;;;;;12.70;4.13;;;;;;;15.68;100.00;98062.94;4984414;28;20669;-55
2022/05/22 05:36:57;;;;;;;15.38;4.35;;;;;;;14.89;100.00;98074.59;4983487;28;20456;-56
2022/05/22 05:39:22;;;;;;;16.02;5.10;;;;;;;15.49;100.00;98079.81;4984293;28;20624;-56
2022/05/22 05:41:48;;;;;;;12.57;4.40;;;;;;;16.23;100.00;98070.09;4983547;28;20057;-56
2022/05/22 05:44:14;;;;;;;16.42;4.28;;;;;;;17.65;100.00;98056.38;4983822;28;20050;-56
2022/05/22 05:46:39;;;;;;;14.70;4.38;;;;;;;19.49;100.00;98046.63;4983308;28;20475;-57
2022/05/22 05:49:07;;;;;;;12.75;4.22;;;;;;;21.04;100.00;98045.88;4983955;28;20034;-55
2022/05/22 05:51:32;;;;;;;10.95;3.85;;;;;;;23.84;82.02;98031.72;4983494;28;20034;-57
2022/05/22 05:53:58;;;;;;;11.13;3.65;;;;;;;24.21;82.10;98038.84;4983784;28;20034;-57
2022/05/22 05:56:24;;;;;;;10.65;4.00;;;;;;;25.81;65.43;98025.59;4983499;28;20051;-56
2022/05/22 05:58:49;;;;;;;7.57;3.40;;;;;;;26.38;60.06;98029.56;4983998;28;20125;-56
2022/05/22 06:01:17;;;;;;;8.98;3.60;;;;;;;27.20;56.49;98040.38;4983067;28;20046;-57
2022/05/22 06:03:44;;;;;;;7.75;3.13;;;;;;;27.48;53.15;98031.03;4983732;28;20488;-57
2022/05/22 06:06:11;;;;;;;7.55;3.10;;;;;;;28.96;50.19;98033.09;4983219;28;20233;-57
2022/05/22 06:08:37;;;;;;;7.13;3.00;;;;;;;28.17;51.27;98032.34;4983233;28;20030;-57
2022/05/22 06:11:03;;;;;;;7.95;3.03;;;;;;;29.67;47.17;98016.69;4982662;28;20042;-57
2022/05/22 06:13:29;;;;;;;6.68;2.95;;;;;;;29.65;46.41;98021.44;4983241;28;20034;-56
2022/05/22 06:15:54;;;;;;;7.60;2.88;;;;;;;28.41;45.95;98023.34;4983184;28;20030;-57
2022/05/22 06:18:20;;;;;;;7.25;3.05;;;;;;;28.97;45.59;98020.50;4983352;28;20030;-57
2022/05/22 06:20:46;;;;;;;7.10;2.80;;;;;;;29.44;45.42;98026.69;4982829;28;20093;-56
2022/05/22 06:23:11;;;;;;;6.47;2.88;;;;;;;29.84;45.33;98024.63;4983632;28;20026;-56
2022/05/22 06:25:39;;;;;;;6.75;2.63;;;;;;;30.66;43.10;98012.81;4983239;28;20045;-56
2022/05/22 06:28:05;;;;;;;5.10;2.40;;;;;;;30.92;41.91;98015.81;4983699;28;20022;-56
2022/05/22 06:30:30;;;;;;;6.70;2.42;;;;;;;29.29;43.02;98019.41;4982975;28;20125;-55
2022/05/22 06:32:57;;;;;;;5.65;2.78;;;;;;;31.00;40.63;98022.91;4983552;28;20026;-57
2022/05/22 06:35:22;;;;;;;5.40;2.67;;;;;;;29.17;43.84;98020.88;4982949;28;20113;-57
2022/05/22 06:37:48;;;;;;;6.72;2.60;;;;;;;31.54;40.00;98016.16;4983185;28;20596;-56
2022/05/22 06:40:13;;;;;;;7.05;2.90;;;;;;;30.33;40.71;98018.69;4982372;28;20587;-57
2022/05/22 06:42:42;;;;;;;8.25;2.63;;;;;;;30.27;41.30;98020.22;4982769;28;20030;-58
2022/05/22 06:45:14;;;;;;;5.53;2.65;;;;;;;31.57;38.75;98015.72;4982832;28;20396;-57
2022/05/22 06:47:41;;;;;;;5.35;2.35;;;;;;;31.51;38.98;98006.56;4982277;28;20026;-57
2022/05/22 06:50:11;;;;;;;6.35;2.60;;;;;;;29.94;40.99;98001.81;4982423;28;20526;-56
2022/05/22 06:52:36;;;;;;;5.82;2.60;;;;;;;32.29;38.03;97992.06;4982607;28;20022;-57
2022/05/22 06:55:03;;;;;;;4.70;2.63;;;;;;;30.05;38.83;97994.28;4982714;28;20087;-58
2022/05/22 06:57:28;;;;;;;5.78;2.30;;;;;;;30.47;39.83;97998.13;4980821;28;20077;-57
2022/05/22 06:59:56;;;;;;;4.50;2.50;;;;;;;31.19;38.39;97993.66;4982441;28;20030;-56
2022/05/22 07:02:23;;;;;;;6.07;2.60;;;;;;;29.07;40.08;97990.72;4982012;28;20042;-58
2022/05/22 07:04:48;;;;;;;4.55;2.35;;;;;;;31.65;37.27;98003.94;4982729;28;20488;-58
2022/05/22 07:07:14;;;;;;;5.95;2.20;;;;;;;31.79;36.84;98010.28;4981881;28;20053;-56
2022/05/22 07:09:39;;;;;;;5.23;2.37;;;;;;;32.79;35.99;97997.19;4981660;28;20495;-57
2022/05/22 07:12:07;;;;;;;6.72;2.25;;;;;;;31.03;37.74;97997.47;4980870;28;20371;-58
2022/05/22 07:14:33;;;;;;;3.90;1.98;;;;;;;28.71;40.05;98000.25;4980626;28;20030;-58
2022/05/22 07:17:02;;;;;;;7.00;2.30;;;;;;;29.75;37.26;97994.31;4980524;28;20046;-57
2022/05/22 07:19:27;;;;;;;4.55;2.30;;;;;;;33.42;33.60;97991.44;4981943;28;20440;-58
2022/05/22 07:21:53;;;;;;;4.15;2.40;;;;;;;32.89;34.12;97984.13;4985538;28;20509;-57
2022/05/22 07:24:18;;;;;;;5.10;2.40;;;;;;;33.27;33.07;97980.00;4982119;28;20551;-55
2022/05/22 07:26:43;;;;;;;4.20;2.13;;;;;;;32.32;34.54;97980.03;4981815;28;20046;-58
2022/05/22 07:29:09;;;;;;;5.32;2.15;;;;;;;31.86;35.21;97970.69;4981604;28;20027;-56
2022/05/22 07:31:35;;;;;;;5.55;2.22;;;;;;;28.71;39.59;97969.84;4982078;28;20038;-56
2022/05/22 07:34:00;;;;;;;5.85;2.25;;;;;;;31.63;36.21;97970.97;4979237;28;20026;-57
2022/05/22 07:36:26;;;;;;;4.35;2.20;;;;;;;32.82;35.20;97959.78;4980123;28;20701;-58
2022/05/22 07:38:52;;;;;;;4.72;2.30;;;;;;;30.89;36.84;97967.69;4976847;28;20056;-58
2022/05/22 07:41:17;;;;;;;4.72;2.10;;;;;;;33.49;33.08;97962.50;4980810;28;20043;-57
2022/05/22 07:43:43;;;;;;;4.05;2.15;;;;;;;30.96;36.06;97958.88;4981928;28;20034;-58
2022/05/22 07:46:11;;;;;;;4.75;2.22;;;;;;;31.03;36.85;97954.38;4981628;28;20045;-57
2022/05/22 07:48:37;;;;;;;5.07;2.28;;;;;;;33.22;34.33;97965.25;4996054;28;20030;-58
2022/05/22 07:51:03;;;;;;;6.32;2.30;;;;;;;32.11;35.31;97964.81;4980948;28;20048;-56
2022/05/22 07:53:30;;;;;;;4.70;1.90;;;;;;;31.44;35.39;97956.31;4981242;28;20085;-56
2022/05/22 07:55:55;;;;;;;5.32;2.05;;;;;;;34.63;32.13;97946.66;4981196;28;20062;-57
2022/05/22 07:58:23;;;;;;;5.50;2.00;;;;;;;33.18;32.94;97947.78;4981268;28;20114;-57
2022/05/22 08:00:53;;;;;;;4.53;2.10;;;;;;;31.63;33.80;97952.94;4980325;28;20050;-57
2022/05/22 08:03:19;;;;;;;5.00;2.05;;;;;;;31.40;34.82;97957.75;4979633;28;20061;-58
2022/05/22 08:05:46;;;;;;;4.65;1.98;;;;;;;31.48;34.09;97958.44;4980615;28;20038;-57
2022/05/22 08:08:12;;;;;;;5.85;2.13;;;;;;;32.07;32.89;97951.72;4980983;28;20070;-56
2022/05/22 08:10:39;;;;;;;4.00;1.88;;;;;;;29.88;34.59;97945.25;4979408;28;20598;-57
2022/05/22 08:13:05;;;;;;;6.05;2.00;;;;;;;31.16;32.29;97943.69;4979843;28;20035;-57
2022/05/22 08:15:33;;;;;;;5.85;2.00;;;;;;;32.51;30.32;97930.66;4980502;28;20045;-58
2022/05/22 08:17:59;;;;;;;3.92;1.70;;;;;;;30.85;32.18;97939.47;4981391;28;20049;-57
2022/05/22 08:20:26;;;;;;;4.70;1.70;;;;;;;32.85;28.96;97921.59;4982099;28;20040;-59
2022/05/22 08:22:55;;;;;;;5.32;1.80;;;;;;;33.17;29.08;97927.19;4984732;28;20026;-58
2022/05/22 08:25:23;;;;;;;4.57;1.80;;;;;;;30.06;32.16;97918.78;4984704;28;20041;-57
2022/05/22 08:27:48;;;;;;;3.90;1.80;;;;;;;29.78;33.17;97929.44;4967650;28;20056;-57
2022/05/22 08:30:17;;;;;;;4.40;1.70;;;;;;;33.30;28.94;97915.53;4986690;28;20543;-57
2022/05/22 08:32:44;;;;;;;5.03;2.00;;;;;;;34.08;29.16;97913.81;4982485;28;20030;-57
2022/05/22 08:35:12;;;;;;;4.55;1.83;;;;;;;32.92;30.56;97905.38;4982974;28;20026;-58
2022/05/22 08:37:37;;;;;;;3.33;1.70;;;;;;;31.38;32.14;97911.31;4984774;28;20021;-58
2022/05/22 08:40:05;;;;;;;5.50;1.90;;;;;;;33.20;32.40;97910.56;4983761;28;20396;-58
2022/05/22 08:43:10;;;;;;;3.17;1.80;;;;;;;31.45;31.21;97898.69;4981689;28;20400;-59
2022/05/22 08:45:42;;;;;;;3.75;1.95;;;;;;;30.68;32.37;97903.09;4983681;28;20742;-59
2022/05/22 08:48:29;;;;;;;3.67;2.00;;;;;;;30.64;31.70;97897.28;4984550;28;20092;-57
2022/05/22 08:50:57;;;;;;;4.30;2.03;;;;;;;29.07;35.29;97902.13;4983854;28;20046;-59
2022/05/22 08:53:32;;;;;;;4.13;1.90;;;;;;;28.26;37.47;97898.03;4984644;28;20037;-58
2022/05/22 08:58:58;;;;;;;4.57;2.17;;;;;;;27.37;39.44;97896.63;4984352;28;20535;-59
2022/05/22 09:01:33;;;;;;;5.05;2.20;;;;;;;26.79;40.73;97898.56;4982119;28;20046;-56
2022/05/22 09:04:12;;;;;;;9.15;2.67;;;;;;;25.68;40.46;97899.66;4981798;28;20516;-57
2022/05/22 09:06:44;;;;;;;5.28;2.30;;;;;;;24.51;42.22;97890.22;4983635;28;20034;-57
2022/05/22 09:09:09;;;;;;;4.15;2.10;;;;;;;24.30;42.04;97887.84;4983841;28;20064;-57
2022/05/22 09:11:43;;;;;;;6.35;2.70;;;;;;;23.91;42.59;97894.28;4980646;28;20069;-58
2022/05/22 09:14:15;;;;;;;6.47;2.28;;;;;;;25.16;42.04;97896.06;4983218;28;20118;-57
2022/05/22 09:16:52;;;;;;;6.65;2.60;;;;;;;27.84;37.28;97893.06;4983508;28;20042;-57
2022/05/22 09:19:29;;;;;;;5.97;2.38;;;;;;;27.28;37.39;97882.44;4983729;28;20113;-59
2022/05/22 09:22:16;;;;;;;6.82;2.30;;;;;;;27.79;36.34;97887.41;4983101;28;20045;-57
2022/05/22 09:24:50;;;;;;;6.88;2.25;;;;;;;26.37;37.75;97884.31;4983186;28;20026;-59
2022/05/22 09:27:44;;;;;;;6.80;2.40;;;;;;;27.22;35.78;97881.25;4983304;28;20046;-57
2022/05/22 09:30:21;;;;;;;5.65;2.28;;;;;;;28.32;34.48;97882.25;4982994;28;20534;-58
2022/05/22 09:33:05;;;;;;;5.13;2.15;;;;;;;31.74;31.79;97878.72;4981234;28;20027;-59
2022/05/22 09:35:45;;;;;;;4.47;2.00;;;;;;;29.31;33.50;97871.50;4981559;28;20197;-59
2022/05/22 09:38:44;;;;;;;3.95;2.00;;;;;;;29.40;33.27;97868.53;4983563;28;20070;-59
2022/05/22 09:41:16;;;;;;;6.90;2.70;;;;;;;27.44;35.93;97866.31;4980476;28;20083;-58
2022/05/22 09:43:56;;;;;;;6.38;2.05;;;;;;;28.44;35.36;97862.06;4982636;28;20054;-58
2022/05/22 09:46:27;;;;;;;7.75;2.20;;;;;;;29.28;33.89;97861.13;4984544;28;20050;-57
2022/05/22 09:49:11;;;;;;;3.88;1.75;;;;;;;30.81;31.39;97853.91;4983931;28;20026;-57
2022/05/22 09:51:55;;;;;;;6.78;2.17;;;;;;;31.53;31.10;97851.91;4981877;28;20042;-57
2022/05/22 09:54:26;;;;;;;6.28;2.20;;;;;;;32.36;30.82;97852.56;4981340;28;20033;-56
2022/05/22 09:56:51;;;;;;;;;;;;;;;32.18;31.12;97844.25;4983286;28;20113;-58
2022/05/22 10:00:14;;;;;;;5.90;2.10;;;;;;;30.38;33.89;97849.41;4983588;28;20343;-57
2022/05/22 10:02:57;;;;;;;5.38;2.10;;;;;;;29.78;34.09;97854.97;5000606;28;20057;-57
2022/05/22 10:05:45;;;;;;;4.63;2.20;;;;;;;31.09;31.56;97845.84;5005842;28;20061;-57
2022/05/22 10:08:17;;;;;;;5.18;2.10;;;;;;;31.54;32.55;97843.63;4988112;28;20046;-59
2022/05/22 10:11:05;;;;;;;;;;;;;;;27.75;35.87;97846.72;4983423;28;20044;-57
2022/05/22 10:14:03;;;;;;;5.90;2.10;;;;;;;28.98;34.24;97848.47;4981256;28;20004;-57
2022/05/22 10:16:59;;;;;;;7.18;2.45;;;;;;;29.89;33.01;97834.84;4981474;28;20042;-57
2022/05/22 10:19:27;;;;;;;6.32;2.50;;;;;;;29.32;34.66;97832.88;4980428;28;20129;-57
2022/05/22 10:22:09;;;;;;;4.53;2.10;;;;;;;30.43;33.26;97833.53;4980485;28;20130;-56
2022/05/22 10:25:02;;;;;;;4.85;2.20;;;;;;;29.59;32.31;97828.66;4981766;28;20030;-56
2022/05/22 10:27:30;;;;;;;4.65;2.30;;;;;;;29.72;32.07;97823.47;4982396;28;20178;-58
2022/05/22 10:30:08;;;;;;;4.03;2.03;;;;;;;31.07;30.88;97819.09;4980163;28;20033;-57
2022/05/22 10:32:44;;;;;;;4.25;1.95;;;;;;;31.18;30.85;97815.00;4981466;28;20038;-56
2022/05/22 10:35:27;;;;;;;4.20;2.03;;;;;;;30.65;31.69;97825.41;4970497;28;20080;-57
2022/05/22 10:38:02;;;;;;;5.85;2.30;;;;;;;31.63;33.14;97820.84;4972348;28;20124;-60
2022/05/22 10:42:44;;;;;;;5.45;2.20;;;;;;;29.62;35.53;97816.72;4995409;28;20049;-57
2022/05/22 10:43:14;;;;;;;7.78;2.50;;;;;;;30.89;34.81;97803.41;4981830;28;20504;-61
2022/05/22 10:45:40;;;;;;;5.82;2.28;;;;;;;31.49;34.23;97802.97;4982225;28;20046;-59
2022/05/22 10:48:19;;;;;;;6.32;2.17;;;;;;;29.66;36.17;97797.31;4982899;28;20038;-60
2022/05/22 10:50:58;;;;;;;7.97;2.55;;;;;;;29.22;35.12;97806.28;4981910;28;20500;-58
2022/05/22 10:53:37;;;;;;;5.82;2.50;;;;;;;30.39;33.87;97808.03;4982828;28;20824;-60
2022/05/22 10:56:18;;;;;;;8.48;2.60;;;;;;;30.27;35.10;97801.47;4981177;28;20053;-59
2022/05/22 10:59:17;;;;;;;5.82;2.30;;;;;;;28.84;33.89;97804.53;4980862;28;20030;-58
2022/05/22 11:01:42;;;;;;;7.25;2.33;;;;;;;31.22;32.90;97797.41;4977251;28;20839;-59
2022/05/22 11:04:14;;;;;;;8.18;2.60;;;;;;;31.74;31.33;97784.38;4977685;28;20038;-56
2022/05/22 11:06:56;;;;;;;7.85;2.95;;;;;;;31.60;31.98;97783.50;4978589;28;20034;-58
2022/05/22 11:09:24;;;;;;;7.55;2.65;;;;;;;29.83;33.33;97791.75;4979608;28;20037;-59
2022/05/22 11:11:50;;;;;;;8.70;2.90;;;;;;;28.39;36.95;97786.66;4977624;28;20508;-60
2022/05/22 11:14:20;;;;;;;10.75;2.95;;;;;;;30.18;32.74;97785.47;4977264;28;20018;-58
2022/05/22 11:16:47;;;;;;;7.57;2.70;;;;;;;30.09;34.61;97781.25;4976633;28;20065;-59
2022/05/22 11:19:20;;;;;;;8.35;3.20;;;;;;;30.29;37.25;97781.44;4976815;28;20152;-60
2022/05/22 11:22:25;;;;;;;7.38;2.80;;;;;;;30.70;35.21;97779.91;4979304;28;20299;-61
2022/05/22 11:25:09;;;;;;;8.00;2.60;;;;;;;29.23;36.18;97781.13;4979966;28;20084;-59
2022/05/22 11:27:38;;;;;;;5.80;2.05;;;;;;;30.40;36.60;97787.34;4978575;28;20200;-60
2022/05/22 11:30:28;;;;;;;6.35;2.50;;;;;;;30.85;36.75;97774.41;4979070;28;20026;-57
2022/05/22 11:33:02;;;;;;;8.20;2.15;;;;;;;29.60;37.46;97782.78;4977145;28;20038;-60
2022/05/22 11:35:31;;;;;;;9.00;3.00;;;;;;;29.72;37.28;97772.38;4977477;28;20137;-57
2022/05/22 11:38:27;;;;;;;9.32;2.70;;;;;;;29.65;37.36;97776.88;4979134;28;20038;-56
2022/05/22 11:41:03;;;;;;;8.65;2.95;;;;;;;27.96;36.34;97762.22;4976211;28;20346;-58
2022/05/22 11:43:59;;;;;;;6.30;2.45;;;;;;;28.54;37.14;97757.19;4975304;28;20991;-58
2022/05/22 11:46:49;;;;;;;10.82;3.28;;;;;;;29.35;33.81;97760.81;4976134;28;20034;-58
2022/05/22 11:49:18;;;;;;;12.45;2.60;;;;;;;26.99;35.91;97749.97;4976911;28;20066;-56
2022/05/22 11:52:12;;;;;;;9.07;2.65;;;;;;;27.08;35.72;97742.75;4978299;28;20061;-58